createdAt,value
2023-09-24T00:01:01.467Z,97.10
2023-09-24T00:03:28.498Z,97.30
2023-09-24T00:05:56.058Z,97.40
2023-09-24T00:08:23.169Z,98.40
2023-09-24T00:10:57.197Z,98.20
2023-09-24T00:13:24.361Z,98.60
2023-09-24T00:15:52.063Z,99.00
2023-09-24T00:18:21.292Z,98.70
2023-09-24T00:20:50.584Z,98.30
2023-09-24T00:23:17.345Z,98.10
2023-09-24T00:25:45.777Z,98.10
2023-09-24T00:28:12.717Z,98.70
2023-09-24T00:30:42.596Z,99.10
2023-09-24T00:33:10.440Z,98.80
2023-09-24T00:35:37.534Z,99.20
2023-09-24T00:38:04.691Z,99.70
2023-09-24T00:40:31.932Z,99.60
2023-09-24T00:42:58.759Z,99.70
2023-09-24T00:45:29.646Z,99.90
2023-09-24T00:47:58.543Z,99.90
2023-09-24T00:50:28.526Z,99.90
2023-09-24T00:52:55.991Z,99.90
2023-09-24T00:55:23.908Z,99.90
2023-09-24T00:57:51.936Z,99.90
2023-09-24T01:00:19.619Z,99.90
2023-09-24T01:02:51.285Z,99.90
2023-09-24T01:05:19.832Z,99.90
2023-09-24T01:07:47.390Z,99.90
2023-09-24T01:10:15.990Z,99.90
2023-09-24T01:12:55.328Z,99.90
2023-09-24T01:15:22.411Z,99.90
2023-09-24T01:17:49.516Z,99.90
2023-09-24T01:20:16.399Z,99.90
2023-09-24T01:22:43.234Z,99.90
2023-09-24T01:25:10.439Z,99.90
2023-09-24T01:27:37.735Z,99.90
2023-09-24T01:30:08.272Z,99.90
2023-09-24T01:32:36.108Z,99.90
2023-09-24T01:35:04.607Z,99.90
2023-09-24T01:37:35.137Z,99.90
2023-09-24T01:40:10.607Z,99.90
2023-09-24T01:42:37.660Z,99.90
2023-09-24T01:45:07.154Z,99.90
2023-09-24T01:47:34.721Z,99.90
2023-09-24T01:50:01.597Z,99.90
2023-09-24T01:52:28.513Z,99.90
2023-09-24T01:54:57.015Z,99.90
2023-09-24T01:57:23.899Z,99.90
2023-09-24T01:59:50.829Z,99.90
2023-09-24T02:02:17.598Z,99.90
2023-09-24T02:04:44.388Z,99.90
2023-09-24T02:07:13.267Z,99.90
2023-09-24T02:09:40.187Z,99.90
2023-09-24T02:12:09.622Z,99.90
2023-09-24T02:14:36.578Z,99.90
2023-09-24T02:17:03.555Z,99.90
2023-09-24T02:19:30.486Z,99.90
2023-09-24T02:21:57.446Z,99.90
2023-09-24T02:24:24.377Z,99.90
2023-09-24T02:26:51.331Z,99.90
2023-09-24T02:29:20.263Z,99.90
2023-09-24T02:31:47.460Z,99.90
2023-09-24T02:34:14.272Z,99.90
2023-09-24T02:36:41.176Z,99.90
2023-09-24T02:39:08.298Z,99.90
2023-09-24T02:41:35.236Z,99.90
2023-09-24T02:44:03.310Z,99.90
2023-09-24T02:46:31.239Z,99.90
2023-09-24T02:48:58.147Z,99.90
2023-09-24T02:51:25.033Z,99.90
2023-09-24T02:53:51.832Z,99.90
2023-09-24T02:56:19.012Z,99.90
2023-09-24T02:58:46.773Z,99.90
2023-09-24T03:01:17.333Z,99.90
2023-09-24T03:03:44.383Z,99.90
2023-09-24T03:06:11.330Z,99.90
2023-09-24T03:08:38.375Z,99.90
2023-09-24T03:11:15.459Z,99.90
2023-09-24T03:13:42.894Z,99.90
2023-09-24T03:16:10.241Z,99.90
2023-09-24T03:18:37.387Z,99.90
2023-09-24T03:21:07.523Z,99.90
2023-09-24T03:23:35.125Z,99.90
2023-09-24T03:26:02.943Z,99.90
2023-09-24T03:28:29.782Z,99.90
2023-09-24T03:30:56.641Z,99.90
2023-09-24T03:33:23.898Z,99.90
2023-09-24T03:35:51.016Z,99.90
2023-09-24T03:38:19.431Z,99.90
2023-09-24T03:40:46.374Z,99.90
2023-09-24T03:43:13.336Z,99.90
2023-09-24T03:45:40.518Z,99.90
2023-09-24T03:48:08.371Z,99.90
2023-09-24T03:50:35.262Z,99.90
2023-09-24T03:53:02.155Z,99.90
2023-09-24T03:55:29.286Z,99.90
2023-09-24T03:57:56.028Z,99.90
2023-09-24T04:00:23.795Z,99.90
2023-09-24T04:02:52.911Z,99.90
2023-09-24T04:05:26.325Z,99.90
2023-09-24T04:07:55.763Z,99.90
2023-09-24T04:10:25.079Z,99.90
2023-09-24T04:12:52.322Z,99.90
2023-09-24T04:15:31.249Z,99.90
2023-09-24T04:18:00.855Z,99.90
2023-09-24T04:20:30.653Z,99.90
2023-09-24T04:22:58.386Z,99.90
2023-09-24T04:25:27.580Z,99.90
2023-09-24T04:27:54.747Z,99.90
2023-09-24T04:30:23.798Z,99.90
2023-09-24T04:32:55.296Z,99.90
2023-09-24T04:35:23.207Z,99.90
2023-09-24T04:37:51.478Z,99.90
2023-09-24T04:40:19.508Z,99.90
2023-09-24T04:42:47.080Z,99.90
2023-09-24T04:45:15.774Z,99.90
2023-09-24T04:47:43.674Z,99.90
2023-09-24T04:50:15.210Z,99.90
2023-09-24T04:52:46.427Z,99.90
2023-09-24T04:55:14.038Z,99.90
2023-09-24T04:57:40.912Z,99.90
2023-09-24T05:00:08.528Z,99.90
2023-09-24T05:02:35.693Z,99.90
2023-09-24T05:05:02.865Z,99.90
2023-09-24T05:07:29.697Z,99.90
2023-09-24T05:09:57.385Z,99.90
2023-09-24T05:12:24.415Z,99.90
2023-09-24T05:14:51.515Z,99.90
2023-09-24T05:17:18.788Z,99.90
2023-09-24T05:19:45.834Z,99.90
2023-09-24T05:22:12.818Z,99.90
2023-09-24T05:24:39.784Z,99.90
2023-09-24T05:27:06.827Z,99.90
2023-09-24T05:29:33.699Z,99.90
2023-09-24T05:32:03.139Z,99.90
2023-09-24T05:34:30.292Z,99.90
2023-09-24T05:36:57.147Z,99.90
2023-09-24T05:39:23.973Z,99.90
2023-09-24T05:41:50.990Z,99.90
2023-09-24T05:44:18.937Z,99.90
2023-09-24T05:46:46.165Z,99.90
2023-09-24T05:49:13.169Z,99.90
2023-09-24T05:51:40.055Z,99.90
2023-09-24T05:54:08.154Z,99.90
2023-09-24T05:56:35.136Z,99.90
2023-09-24T05:59:01.965Z,99.90
2023-09-24T06:01:28.867Z,99.90
2023-09-24T06:03:56.035Z,99.90
2023-09-24T06:06:23.012Z,99.90
2023-09-24T06:08:50.410Z,99.90
2023-09-24T06:11:17.509Z,99.90
2023-09-24T06:13:44.329Z,99.90
2023-09-24T06:16:11.215Z,99.90
2023-09-24T06:18:40.599Z,99.90
2023-09-24T06:21:08.518Z,99.90
2023-09-24T06:23:35.768Z,99.90
2023-09-24T06:26:04.257Z,99.90
2023-09-24T06:28:31.075Z,99.90
2023-09-24T06:31:02.247Z,99.90
2023-09-24T06:33:29.629Z,99.90
2023-09-24T06:35:57.504Z,99.90
2023-09-24T06:38:24.511Z,99.90
2023-09-24T06:41:00.522Z,99.90
2023-09-24T06:43:27.613Z,99.90
2023-09-24T06:45:58.067Z,99.90
2023-09-24T06:48:25.853Z,99.90
2023-09-24T06:50:56.040Z,99.90
2023-09-24T06:53:24.277Z,99.90
2023-09-24T06:55:51.000Z,99.90
2023-09-24T06:58:17.918Z,99.90
2023-09-24T07:00:44.794Z,99.90
2023-09-24T07:03:11.844Z,99.90
2023-09-24T07:05:38.946Z,99.90
2023-09-24T07:08:06.220Z,99.90
2023-09-24T07:10:33.350Z,99.90
2023-09-24T07:13:00.211Z,99.90
2023-09-24T07:15:27.114Z,99.90
2023-09-24T07:17:56.683Z,99.90
2023-09-24T07:20:24.172Z,99.90
2023-09-24T07:22:50.957Z,99.90
2023-09-24T07:25:17.797Z,99.90
2023-09-24T07:27:45.132Z,99.90
2023-09-24T07:30:12.449Z,99.90
2023-09-24T07:32:39.995Z,99.90
2023-09-24T07:35:09.480Z,99.90
2023-09-24T07:37:37.315Z,99.90
2023-09-24T07:40:06.176Z,99.90
2023-09-24T07:42:32.963Z,99.90
2023-09-24T07:44:59.725Z,99.90
2023-09-24T07:47:27.275Z,99.90
2023-09-24T07:49:54.167Z,99.90
2023-09-24T07:52:21.024Z,99.90
2023-09-24T07:54:48.805Z,99.90
2023-09-24T07:57:16.400Z,99.90
2023-09-24T07:59:43.277Z,99.90
2023-09-24T08:02:10.534Z,99.90
2023-09-24T08:04:37.257Z,99.90
2023-09-24T08:07:04.474Z,99.90
2023-09-24T08:09:31.634Z,99.90
2023-09-24T08:11:58.559Z,99.90
2023-09-24T08:14:26.174Z,99.90
2023-09-24T08:16:53.400Z,99.90
2023-09-24T08:19:20.290Z,99.90
2023-09-24T08:21:47.027Z,99.90
2023-09-24T08:24:13.903Z,99.90
2023-09-24T08:26:40.748Z,99.90
2023-09-24T08:29:08.196Z,98.80
2023-09-24T08:31:36.097Z,96.40
2023-09-24T08:34:03.912Z,94.70
2023-09-24T08:36:31.225Z,93.40
2023-09-24T08:38:58.374Z,92.30
2023-09-24T08:41:25.581Z,91.50
2023-09-24T08:43:57.066Z,90.80
2023-09-24T08:46:25.296Z,90.30
2023-09-24T08:48:53.472Z,89.30
2023-09-24T08:51:21.710Z,89.00
2023-09-24T08:53:48.657Z,87.60
2023-09-24T08:56:19.092Z,87.30
2023-09-24T08:58:47.145Z,86.00
2023-09-24T09:01:14.312Z,85.90
2023-09-24T09:03:42.490Z,85.50
2023-09-24T09:06:09.652Z,86.40
2023-09-24T09:08:54.189Z,84.60
2023-09-24T09:11:22.185Z,85.70
2023-09-24T09:14:09.492Z,83.90
2023-09-24T09:16:56.872Z,85.10
2023-09-24T09:19:24.516Z,83.40
2023-09-24T09:21:51.345Z,85.50
2023-09-24T09:24:22.909Z,84.50
2023-09-24T09:26:57.770Z,83.60
2023-09-24T09:29:26.986Z,83.20
2023-09-24T09:31:55.468Z,83.50
2023-09-24T09:34:23.176Z,84.10
2023-09-24T09:36:50.623Z,84.50
2023-09-24T09:39:21.440Z,83.80
2023-09-24T09:41:51.003Z,83.70
2023-09-24T09:44:27.295Z,83.70
2023-09-24T09:47:01.868Z,82.10
2023-09-24T09:49:32.846Z,84.50
2023-09-24T09:52:03.537Z,83.70
2023-09-24T09:54:36.579Z,83.70
2023-09-24T09:57:05.796Z,84.40
2023-09-24T09:59:35.951Z,83.60
2023-09-24T10:02:05.472Z,85.00
2023-09-24T10:04:37.070Z,85.50
2023-09-24T10:07:05.547Z,85.00
2023-09-24T10:09:32.346Z,85.40
2023-09-24T10:11:59.456Z,85.80
2023-09-24T10:14:36.432Z,85.30
2023-09-24T10:17:22.950Z,84.90
2023-09-24T10:19:59.510Z,85.10
2023-09-24T10:22:35.326Z,85.00
2023-09-24T10:25:23.127Z,84.40
2023-09-24T10:28:11.487Z,83.50
2023-09-24T10:31:05.623Z,84.00
2023-09-24T10:34:01.844Z,83.60
2023-09-24T10:36:34.896Z,83.60
2023-09-24T10:39:07.001Z,83.70
2023-09-24T10:41:35.756Z,84.10
2023-09-24T10:44:23.086Z,82.80
2023-09-24T10:46:58.175Z,82.50
2023-09-24T10:49:27.394Z,82.20
2023-09-24T10:52:03.109Z,81.40
2023-09-24T10:54:29.923Z,80.70
2023-09-24T10:56:58.680Z,80.50
2023-09-24T10:59:35.905Z,80.70
2023-09-24T11:02:21.876Z,80.30
2023-09-24T11:04:49.426Z,79.50
2023-09-24T11:07:16.673Z,79.10
2023-09-24T11:09:50.574Z,80.00
2023-09-24T11:12:17.616Z,80.40
2023-09-24T11:15:14.443Z,77.60
2023-09-24T11:17:45.136Z,78.60
2023-09-24T11:20:13.150Z,78.20
2023-09-24T11:22:40.590Z,77.70
2023-09-24T11:25:10.948Z,78.00
2023-09-24T11:27:51.803Z,76.30
2023-09-24T11:30:20.961Z,76.90
2023-09-24T11:32:49.946Z,76.70
2023-09-24T11:35:18.832Z,77.10
2023-09-24T11:37:57.824Z,76.70
2023-09-24T11:40:30.224Z,75.20
2023-09-24T11:43:04.646Z,74.80
2023-09-24T11:45:49.812Z,73.10
2023-09-24T11:48:19.842Z,75.40
2023-09-24T11:50:54.569Z,75.10
2023-09-24T11:53:24.695Z,74.50
2023-09-24T11:55:54.973Z,73.90
2023-09-24T11:58:24.616Z,73.70
2023-09-24T12:00:51.527Z,75.20
2023-09-24T12:03:18.630Z,74.40
2023-09-24T12:05:45.812Z,75.10
2023-09-24T12:08:12.644Z,74.60
2023-09-24T12:10:42.082Z,73.70
2023-09-24T12:13:13.740Z,74.20
2023-09-24T12:15:40.907Z,73.60
2023-09-24T12:18:11.972Z,73.00
2023-09-24T12:20:43.592Z,72.60
2023-09-24T12:23:12.004Z,72.90
2023-09-24T12:25:41.293Z,72.50
2023-09-24T12:28:10.237Z,72.00
2023-09-24T12:30:37.952Z,71.60
2023-09-24T12:33:05.476Z,71.20
2023-09-24T12:35:32.896Z,71.70
2023-09-24T12:37:59.732Z,71.20
2023-09-24T12:40:26.954Z,70.90
2023-09-24T12:42:53.897Z,70.90
2023-09-24T12:45:21.210Z,70.40
2023-09-24T12:47:48.199Z,70.80
2023-09-24T12:50:18.024Z,69.80
2023-09-24T12:52:46.215Z,68.60
2023-09-24T12:55:16.670Z,68.80
2023-09-24T12:57:45.521Z,70.90
2023-09-24T13:00:13.717Z,70.20
2023-09-24T13:02:45.895Z,70.00
2023-09-24T13:05:14.761Z,69.90
2023-09-24T13:07:44.409Z,69.50
2023-09-24T13:10:13.223Z,69.60
2023-09-24T13:12:40.210Z,69.60
2023-09-24T13:15:07.652Z,69.50
2023-09-24T13:17:34.415Z,69.60
2023-09-24T13:20:01.628Z,69.10
2023-09-24T13:22:28.334Z,68.20
2023-09-24T13:24:55.136Z,69.10
2023-09-24T13:27:22.163Z,69.30
2023-09-24T13:29:49.018Z,68.60
2023-09-24T13:32:19.146Z,68.90
2023-09-24T13:34:46.132Z,68.70
2023-09-24T13:37:12.929Z,68.80
2023-09-24T13:39:39.651Z,68.80
2023-09-24T13:42:06.603Z,67.20
2023-09-24T13:44:36.477Z,68.50
2023-09-24T13:47:03.452Z,68.50
2023-09-24T13:49:30.609Z,69.10
2023-09-24T13:51:57.385Z,68.50
2023-09-24T13:54:24.609Z,68.40
2023-09-24T13:56:51.410Z,68.30
2023-09-24T13:59:18.449Z,68.50
2023-09-24T14:01:45.280Z,68.30
2023-09-24T14:04:12.218Z,68.20
2023-09-24T14:06:39.097Z,68.40
2023-09-24T14:09:24.854Z,68.40
2023-09-24T14:12:10.409Z,68.50
2023-09-24T14:14:37.305Z,68.60
2023-09-24T14:17:03.992Z,68.50
2023-09-24T14:19:30.758Z,68.50
2023-09-24T14:21:58.557Z,68.20
2023-09-24T14:24:25.642Z,68.20
2023-09-24T14:26:52.413Z,68.60
2023-09-24T14:29:19.378Z,68.00
2023-09-24T14:31:47.528Z,68.50
2023-09-24T14:34:14.288Z,68.40
2023-09-24T14:36:41.050Z,68.10
2023-09-24T14:39:11.133Z,67.80
2023-09-24T14:41:37.970Z,67.40
2023-09-24T14:44:08.556Z,67.20
2023-09-24T14:46:39.748Z,67.90
2023-09-24T14:49:08.785Z,67.40
2023-09-24T14:51:36.538Z,67.40
2023-09-24T14:54:03.586Z,67.40
2023-09-24T14:56:30.586Z,67.20
2023-09-24T14:58:57.432Z,67.60
2023-09-24T15:01:24.340Z,67.40
2023-09-24T15:03:51.589Z,67.40
2023-09-24T15:06:18.626Z,67.90
2023-09-24T15:08:45.693Z,67.90
2023-09-24T15:11:12.642Z,68.60
2023-09-24T15:13:41.403Z,68.60
2023-09-24T15:16:08.858Z,69.10
2023-09-24T15:18:36.118Z,69.10
2023-09-24T15:21:04.773Z,68.10
2023-09-24T15:23:32.134Z,68.60
2023-09-24T15:25:59.144Z,68.60
2023-09-24T15:28:26.118Z,68.90
2023-09-24T15:30:52.940Z,68.60
2023-09-24T15:33:20.036Z,68.60
2023-09-24T15:35:47.697Z,68.50
2023-09-24T15:38:14.590Z,68.80
2023-09-24T15:40:41.805Z,69.30
2023-09-24T15:43:10.366Z,68.80
2023-09-24T15:45:46.608Z,69.10
2023-09-24T15:48:17.940Z,68.40
2023-09-24T15:50:47.256Z,68.10
2023-09-24T15:53:14.300Z,67.80
2023-09-24T15:55:43.796Z,67.70
2023-09-24T15:58:11.119Z,67.80
2023-09-24T16:00:38.273Z,67.50
2023-09-24T16:03:05.502Z,67.50
2023-09-24T16:05:32.485Z,68.00
2023-09-24T16:07:59.188Z,68.20
2023-09-24T16:10:25.856Z,68.20
2023-09-24T16:12:52.966Z,68.30
2023-09-24T16:15:19.711Z,68.20
2023-09-24T16:17:47.018Z,68.20
2023-09-24T16:20:13.903Z,68.20
2023-09-24T16:22:41.226Z,68.50
2023-09-24T16:25:09.561Z,68.80
2023-09-24T16:27:36.377Z,69.30
2023-09-24T16:30:04.484Z,69.30
2023-09-24T16:32:31.414Z,70.40
2023-09-24T16:34:58.171Z,70.30
2023-09-24T16:37:25.330Z,70.90
2023-09-24T16:39:53.046Z,71.60
2023-09-24T16:42:19.999Z,72.10
2023-09-24T16:44:46.863Z,72.70
2023-09-24T16:47:13.579Z,72.40
2023-09-24T16:49:40.285Z,72.10
2023-09-24T16:52:07.119Z,73.30
2023-09-24T16:54:33.890Z,74.00
2023-09-24T16:57:00.781Z,74.60
2023-09-24T16:59:28.045Z,74.90
2023-09-24T17:01:59.133Z,75.60
2023-09-24T17:04:27.138Z,75.70
2023-09-24T17:06:54.623Z,76.20
2023-09-24T17:09:25.308Z,76.60
2023-09-24T17:11:54.181Z,77.10
2023-09-24T17:14:24.077Z,76.60
2023-09-24T17:16:54.179Z,77.60
2023-09-24T17:19:23.614Z,77.40
2023-09-24T17:21:50.741Z,77.80
2023-09-24T17:24:24.140Z,78.30
2023-09-24T17:26:51.421Z,77.90
2023-09-24T17:29:21.879Z,77.80
2023-09-24T17:31:48.957Z,77.80
2023-09-24T17:34:17.102Z,77.90
2023-09-24T17:36:44.684Z,78.20
2023-09-24T17:39:13.545Z,78.40
2023-09-24T17:41:40.844Z,78.50
2023-09-24T17:44:11.184Z,78.90
2023-09-24T17:46:38.037Z,79.10
2023-09-24T17:49:05.243Z,79.40
2023-09-24T17:51:32.052Z,79.40
2023-09-24T17:53:58.855Z,79.70
2023-09-24T17:56:25.638Z,80.20
2023-09-24T17:58:52.387Z,80.80
2023-09-24T18:01:21.133Z,81.20
2023-09-24T18:03:48.331Z,81.50
2023-09-24T18:06:16.127Z,81.90
2023-09-24T18:08:44.071Z,82.10
2023-09-24T18:11:11.171Z,82.50
2023-09-24T18:13:38.895Z,82.70
2023-09-24T18:16:07.074Z,82.70
2023-09-24T18:18:35.660Z,83.00
2023-09-24T18:21:04.605Z,83.20
2023-09-24T18:23:35.502Z,83.10
2023-09-24T18:26:03.411Z,83.40
2023-09-24T18:28:30.843Z,83.70
2023-09-24T18:31:00.276Z,83.80
2023-09-24T18:33:28.118Z,84.10
2023-09-24T18:35:57.808Z,84.20
2023-09-24T18:38:25.848Z,83.90
2023-09-24T18:40:55.542Z,84.70
2023-09-24T18:43:23.661Z,84.70
2023-09-24T18:45:52.616Z,84.70
2023-09-24T18:48:20.569Z,84.70
2023-09-24T18:50:48.091Z,85.00
2023-09-24T18:53:15.260Z,85.30
2023-09-24T18:55:42.073Z,85.50
2023-09-24T18:58:09.154Z,85.70
2023-09-24T19:00:36.072Z,85.90
2023-09-24T19:03:03.208Z,85.70
2023-09-24T19:05:30.093Z,85.70
2023-09-24T19:07:57.233Z,85.80
2023-09-24T19:10:24.164Z,86.20
2023-09-24T19:12:50.918Z,86.50
2023-09-24T19:15:17.874Z,86.50
2023-09-24T19:17:45.939Z,86.50
2023-09-24T19:20:13.229Z,86.60
2023-09-24T19:22:41.700Z,86.60
2023-09-24T19:25:09.131Z,86.80
2023-09-24T19:27:36.538Z,87.10
2023-09-24T19:30:05.282Z,86.90
2023-09-24T19:32:32.253Z,87.10
2023-09-24T19:34:59.101Z,87.40
2023-09-24T19:37:25.979Z,87.60
2023-09-24T19:39:52.871Z,87.90
2023-09-24T19:42:19.781Z,88.20
2023-09-24T19:44:46.752Z,88.40
2023-09-24T19:47:16.635Z,88.60
2023-09-24T19:49:44.092Z,88.70
2023-09-24T19:52:10.944Z,89.10
2023-09-24T19:54:37.951Z,89.30
2023-09-24T19:57:05.070Z,89.40
2023-09-24T19:59:32.743Z,89.60
2023-09-24T20:01:59.689Z,89.90
2023-09-24T20:04:26.653Z,89.70
2023-09-24T20:06:53.599Z,89.90
2023-09-24T20:09:20.449Z,90.00
2023-09-24T20:11:47.288Z,90.10
2023-09-24T20:14:15.593Z,90.20
2023-09-24T20:16:42.745Z,90.20
2023-09-24T20:19:10.381Z,90.30
2023-09-24T20:21:37.762Z,90.40
2023-09-24T20:24:10.379Z,90.50
2023-09-24T20:26:43.084Z,90.50
2023-09-24T20:29:10.749Z,90.60
2023-09-24T20:31:38.616Z,90.70
2023-09-24T20:34:05.931Z,90.90
2023-09-24T20:36:33.725Z,90.90
2023-09-24T20:39:07.589Z,91.10
2023-09-24T20:41:39.000Z,91.10
2023-09-24T20:44:07.705Z,91.10
2023-09-24T20:46:37.977Z,91.30
2023-09-24T20:49:06.002Z,91.30
2023-09-24T20:51:33.421Z,91.40
2023-09-24T20:54:00.493Z,91.60
2023-09-24T20:56:27.770Z,91.60
2023-09-24T20:59:01.526Z,91.50
2023-09-24T21:01:28.523Z,91.70
2023-09-24T21:03:55.637Z,91.80
2023-09-24T21:06:22.790Z,91.80
2023-09-24T21:08:49.725Z,91.90
2023-09-24T21:11:16.933Z,92.00
2023-09-24T21:13:44.973Z,92.00
2023-09-24T21:16:11.937Z,92.20
2023-09-24T21:18:38.785Z,92.10
2023-09-24T21:21:05.757Z,92.20
2023-09-24T21:23:32.700Z,92.30
2023-09-24T21:26:07.461Z,92.30
2023-09-24T21:28:34.794Z,92.40
2023-09-24T21:34:01.679Z,92.30
2023-09-24T21:36:28.704Z,92.40
2023-09-24T21:57:41.594Z,92.90
2023-09-24T22:00:18.934Z,93.20
2023-09-24T22:02:46.706Z,93.50
2023-09-24T22:05:14.940Z,93.30
2023-09-24T22:07:41.934Z,93.60
2023-09-24T22:10:09.086Z,93.50
2023-09-24T22:12:36.544Z,93.60
2023-09-24T22:15:04.067Z,93.50
2023-09-24T22:17:31.019Z,93.80
2023-09-24T22:19:57.799Z,93.70
2023-09-24T22:22:24.588Z,93.80
2023-09-24T22:24:51.452Z,94.10
2023-09-24T22:27:18.482Z,94.30
2023-09-24T22:29:46.104Z,94.70
2023-09-24T22:35:04.749Z,94.00
2023-09-24T22:37:31.547Z,94.30
2023-09-24T22:39:58.332Z,94.30
2023-09-24T22:42:26.686Z,94.40
2023-09-24T22:44:54.165Z,94.20
2023-09-24T22:47:20.930Z,94.20
2023-09-24T22:49:48.192Z,94.70
2023-09-24T22:52:15.472Z,94.70
2023-09-24T22:54:42.300Z,94.90
2023-09-24T22:57:09.597Z,95.40
2023-09-24T22:59:36.426Z,95.30
2023-09-24T23:02:03.265Z,95.30
2023-09-24T23:04:30.509Z,95.10
2023-09-24T23:06:57.738Z,94.80
2023-09-24T23:09:24.654Z,94.90
2023-09-24T23:11:51.836Z,95.60
2023-09-24T23:14:18.725Z,95.40
2023-09-24T23:16:46.577Z,95.20
2023-09-24T23:19:14.204Z,95.40
2023-09-24T23:21:41.248Z,95.60
2023-09-24T23:24:08.247Z,95.90
2023-09-24T23:26:35.080Z,96.00
2023-09-24T23:29:01.939Z,96.20
2023-09-24T23:31:29.656Z,96.40
2023-09-24T23:33:56.674Z,96.70
2023-09-24T23:36:23.681Z,96.80
2023-09-24T23:38:52.156Z,96.30
2023-09-24T23:41:19.912Z,96.40
2023-09-24T23:43:55.342Z,97.10
2023-09-24T23:49:13.377Z,97.00
2023-09-24T23:51:41.085Z,96.90
2023-09-24T23:54:14.049Z,97.20
2023-09-24T23:56:40.988Z,97.20
2023-09-24T23:59:07.916Z,97.20
